createdAt,value
2023-05-02T00:01:15.646Z,100631.31
2023-05-02T00:03:43.682Z,100642.41
2023-05-02T00:06:11.313Z,100629.16
2023-05-02T00:08:38.258Z,100636.06
2023-05-02T00:11:05.543Z,100643.94
2023-05-02T00:13:32.283Z,100637.66
2023-05-02T00:15:59.025Z,100632.88
2023-05-02T00:18:25.762Z,100624.28
2023-05-02T00:20:52.508Z,100636.31
2023-05-02T00:23:19.236Z,100634.63
2023-05-02T00:25:46.551Z,100645.22
2023-05-02T00:28:16.720Z,100644.91
2023-05-02T00:30:44.878Z,100636.91
2023-05-02T00:33:13.361Z,100640.66
2023-05-02T00:35:40.629Z,100650.63
2023-05-02T00:38:07.686Z,100650.47
2023-05-02T00:40:47.932Z,100652.78
2023-05-02T00:43:16.103Z,100644.81
2023-05-02T00:45:44.583Z,100654.63
2023-05-02T00:48:11.989Z,100642.03
2023-05-02T00:50:40.779Z,100648.38
2023-05-02T00:53:09.052Z,100646.03
2023-05-02T00:55:36.840Z,100646.75
2023-05-02T00:58:08.827Z,100649.50
2023-05-02T01:00:59.787Z,100644.97
2023-05-02T01:04:00.198Z,100653.13
2023-05-02T01:06:42.357Z,100651.94
2023-05-02T01:09:32.021Z,100660.25
2023-05-02T01:12:07.341Z,100656.28
2023-05-02T01:14:38.755Z,100654.38
2023-05-02T01:17:09.975Z,100657.41
2023-05-02T01:19:40.291Z,100671.41
2023-05-02T01:22:10.834Z,100663.81
2023-05-02T01:24:59.482Z,100673.00
2023-05-02T01:27:50.718Z,100668.31
2023-05-02T01:30:19.990Z,100667.91
2023-05-02T01:32:48.526Z,100676.25
2023-05-02T01:35:16.957Z,100681.97
2023-05-02T01:37:45.827Z,100679.28
2023-05-02T01:40:16.721Z,100680.84
2023-05-02T01:42:44.816Z,100677.63
2023-05-02T01:45:13.754Z,100679.25
2023-05-02T01:47:43.615Z,100686.72
2023-05-02T01:50:16.787Z,100686.25
2023-05-02T01:52:45.523Z,100688.81
2023-05-02T01:55:15.415Z,100699.00
2023-05-02T01:57:44.678Z,100695.63
2023-05-02T02:00:13.266Z,100697.88
2023-05-02T02:02:43.755Z,100705.03
2023-05-02T02:05:12.723Z,100706.91
2023-05-02T02:07:39.447Z,100708.53
2023-05-02T02:10:07.069Z,100710.06
2023-05-02T02:12:43.584Z,100717.91
2023-05-02T02:15:18.002Z,100722.72
2023-05-02T02:17:59.271Z,100726.53
2023-05-02T02:20:29.396Z,100733.16
2023-05-02T02:22:57.754Z,100734.22
2023-05-02T02:25:26.990Z,100741.06
2023-05-02T02:27:54.006Z,100734.56
2023-05-02T02:30:21.422Z,100734.53
2023-05-02T02:32:48.146Z,100745.44
2023-05-02T02:35:15.147Z,100746.22
2023-05-02T02:37:48.720Z,100743.41
2023-05-02T02:40:26.345Z,100748.31
2023-05-02T02:43:21.139Z,100749.44
2023-05-02T02:46:31.594Z,100745.78
2023-05-02T02:49:26.990Z,100751.56
2023-05-02T02:52:02.659Z,100748.81
2023-05-02T02:54:35.593Z,100749.69
2023-05-02T02:57:13.252Z,100750.69
2023-05-02T02:59:47.053Z,100756.97
2023-05-02T03:02:18.682Z,100750.63
2023-05-02T03:04:47.194Z,100754.03
2023-05-02T03:07:14.255Z,100757.69
2023-05-02T03:09:45.978Z,100754.53
2023-05-02T03:12:17.524Z,100757.44
2023-05-02T03:14:45.385Z,100766.50
2023-05-02T03:17:12.148Z,100767.91
2023-05-02T03:19:38.944Z,100765.25
2023-05-02T03:22:06.205Z,100778.00
2023-05-02T03:24:35.233Z,100777.94
2023-05-02T03:27:03.243Z,100782.13
2023-05-02T03:29:35.455Z,100786.81
2023-05-02T03:32:02.857Z,100798.09
2023-05-02T03:34:29.678Z,100793.84
2023-05-02T03:36:57.044Z,100789.16
2023-05-02T03:39:24.116Z,100797.03
2023-05-02T03:41:51.073Z,100786.97
2023-05-02T03:44:20.573Z,100793.69
2023-05-02T03:46:48.186Z,100791.91
2023-05-02T03:49:15.199Z,100803.41
2023-05-02T03:51:44.669Z,100804.69
2023-05-02T03:54:12.295Z,100805.56
2023-05-02T03:56:42.966Z,100810.38
2023-05-02T03:59:24.467Z,100816.28
2023-05-02T04:01:51.806Z,100821.84
2023-05-02T04:04:23.027Z,100822.72
2023-05-02T04:06:52.233Z,100827.00
2023-05-02T04:09:23.497Z,100828.66
2023-05-02T04:11:54.340Z,100837.78
2023-05-02T04:14:21.415Z,100834.72
2023-05-02T04:16:50.637Z,100836.84
2023-05-02T04:19:22.143Z,100841.00
2023-05-02T04:21:49.076Z,100848.59
2023-05-02T04:24:16.640Z,100855.06
2023-05-02T04:26:46.214Z,100869.47
2023-05-02T04:29:13.708Z,100860.81
2023-05-02T04:31:41.371Z,100861.50
2023-05-02T04:34:09.727Z,100864.41
2023-05-02T04:36:42.064Z,100875.69
2023-05-02T04:39:12.457Z,100883.72
2023-05-02T04:41:44.928Z,100888.50
2023-05-02T04:44:11.741Z,100882.50
2023-05-02T04:46:38.564Z,100889.31
2023-05-02T04:49:05.408Z,100895.28
2023-05-02T04:51:32.689Z,100898.78
2023-05-02T04:53:59.800Z,100889.91
2023-05-02T04:56:27.393Z,100903.75
2023-05-02T04:58:54.613Z,100897.75
2023-05-02T05:01:27.795Z,100899.41
2023-05-02T05:03:56.119Z,100907.88
2023-05-02T05:06:23.106Z,100911.72
2023-05-02T05:08:50.489Z,100913.84
2023-05-02T05:11:17.626Z,100916.88
2023-05-02T05:13:44.465Z,100917.06
2023-05-02T05:16:13.226Z,100925.66
2023-05-02T05:18:42.962Z,100928.00
2023-05-02T05:21:12.379Z,100933.81
2023-05-02T05:23:39.894Z,100941.59
2023-05-02T05:26:12.192Z,100939.44
2023-05-02T05:28:41.658Z,100946.91
2023-05-02T05:31:09.723Z,100948.13
2023-05-02T05:33:38.788Z,100958.34
2023-05-02T05:36:12.447Z,100959.41
2023-05-02T05:38:39.073Z,100960.97
2023-05-02T05:41:07.910Z,100973.00
2023-05-02T05:43:38.256Z,100974.63
2023-05-02T05:46:06.181Z,100979.03
2023-05-02T05:48:35.484Z,100982.25
2023-05-02T05:51:06.124Z,100982.50
2023-05-02T05:53:33.206Z,100987.38
2023-05-02T05:56:12.812Z,100984.19
2023-05-02T05:58:44.243Z,100980.66
2023-05-02T06:01:13.076Z,100986.75
2023-05-02T06:03:40.818Z,100989.97
2023-05-02T06:06:07.723Z,100986.16
2023-05-02T06:08:34.534Z,100999.34
2023-05-02T06:11:01.249Z,101000.31
2023-05-02T06:13:27.899Z,101000.91
2023-05-02T06:15:55.731Z,101002.38
2023-05-02T06:18:22.601Z,100999.91
2023-05-02T06:20:49.237Z,101000.88
2023-05-02T06:23:16.005Z,101009.56
2023-05-02T06:25:42.610Z,101018.56
2023-05-02T06:28:09.521Z,101010.75
2023-05-02T06:30:36.242Z,101025.31
2023-05-02T06:33:06.237Z,101016.47
2023-05-02T06:35:33.191Z,101030.84
2023-05-02T06:37:59.857Z,101031.38
2023-05-02T06:40:26.662Z,101029.47
2023-05-02T06:42:53.338Z,101031.94
2023-05-02T06:45:20.247Z,101034.28
2023-05-02T06:47:46.991Z,101045.00
2023-05-02T06:50:13.729Z,101047.31
2023-05-02T06:52:40.450Z,101044.19
2023-05-02T06:55:07.521Z,101044.25
2023-05-02T06:57:34.327Z,101046.50
2023-05-02T07:00:01.300Z,101050.91
2023-05-02T07:02:31.323Z,101046.06
2023-05-02T07:04:58.101Z,101060.28
2023-05-02T07:07:24.834Z,101063.25
2023-05-02T07:09:52.200Z,101058.16
2023-05-02T07:12:18.858Z,101054.94
2023-05-02T07:14:46.833Z,101062.31
2023-05-02T07:17:13.587Z,101061.66
2023-05-02T07:19:40.537Z,101064.56
2023-05-02T07:22:07.692Z,101060.38
2023-05-02T07:24:34.491Z,101054.66
2023-05-02T07:27:03.257Z,101062.47
2023-05-02T07:29:29.963Z,101065.03
2023-05-02T07:31:56.813Z,101067.38
2023-05-02T07:34:23.476Z,101074.06
2023-05-02T07:36:50.376Z,101060.66
2023-05-02T07:39:17.077Z,101062.44
2023-05-02T07:41:43.739Z,101058.00
2023-05-02T07:44:11.587Z,101069.16
2023-05-02T07:46:38.407Z,101068.34
2023-05-02T07:49:05.138Z,101073.88
2023-05-02T07:51:32.381Z,101076.09
2023-05-02T07:53:59.442Z,101075.78
2023-05-02T07:56:26.167Z,101071.03
2023-05-02T07:58:52.990Z,101071.03
2023-05-02T08:01:19.994Z,101079.19
2023-05-02T08:03:47.072Z,101085.19
2023-05-02T08:06:14.131Z,101080.78
2023-05-02T08:08:40.949Z,101087.19
2023-05-02T08:11:07.858Z,101096.75
2023-05-02T08:13:35.471Z,101098.25
2023-05-02T08:16:02.984Z,101093.25
2023-05-02T08:18:33.069Z,101095.06
2023-05-02T08:20:59.727Z,101101.50
2023-05-02T08:23:26.445Z,101101.06
2023-05-02T08:25:53.978Z,101099.53
2023-05-02T08:28:20.684Z,101106.63
2023-05-02T08:30:47.803Z,101113.16
2023-05-02T08:33:14.780Z,101113.16
2023-05-02T08:35:42.044Z,101112.66
2023-05-02T08:38:08.823Z,101109.88
2023-05-02T08:40:42.151Z,101111.25
2023-05-02T08:43:11.748Z,101118.06
2023-05-02T08:45:44.096Z,101120.81
2023-05-02T08:48:13.284Z,101118.28
2023-05-02T08:50:42.449Z,101113.41
2023-05-02T08:53:10.492Z,101115.34
2023-05-02T08:55:42.152Z,101119.84
2023-05-02T08:58:10.728Z,101126.53
2023-05-02T09:00:41.752Z,101132.03
2023-05-02T09:03:42.355Z,101132.88
2023-05-02T09:06:15.108Z,101139.13
2023-05-02T09:08:44.124Z,101146.63
2023-05-02T09:11:12.462Z,101141.94
2023-05-02T09:13:41.890Z,101150.50
2023-05-02T09:16:10.044Z,101147.91
2023-05-02T09:18:45.598Z,101146.28
2023-05-02T09:21:14.638Z,101156.03
2023-05-02T09:23:43.810Z,101157.59
2023-05-02T09:26:16.866Z,101153.25
2023-05-02T09:28:51.643Z,101163.84
2023-05-02T09:31:43.664Z,101152.66
2023-05-02T09:34:16.342Z,101159.28
2023-05-02T09:36:45.849Z,101170.19
2023-05-02T09:39:16.038Z,101169.94
2023-05-02T09:41:47.053Z,101172.59
2023-05-02T09:44:22.455Z,101176.41
2023-05-02T09:46:51.794Z,101171.13
2023-05-02T09:49:20.144Z,101171.94
2023-05-02T09:51:48.057Z,101178.38
2023-05-02T09:54:36.282Z,101172.72
2023-05-02T09:57:03.657Z,101182.88
2023-05-02T10:01:59.658Z,101186.94
2023-05-02T10:04:27.773Z,101180.13
2023-05-02T10:06:55.401Z,101192.34
2023-05-02T10:09:22.675Z,101186.13
2023-05-02T10:11:53.575Z,101190.59
2023-05-02T10:14:22.672Z,101194.66
2023-05-02T10:16:59.813Z,101193.03
2023-05-02T10:19:55.572Z,101189.09
2023-05-02T10:22:23.086Z,101191.66
2023-05-02T10:24:50.380Z,101190.50
2023-05-02T10:27:17.124Z,101193.59
2023-05-02T10:29:44.726Z,101197.41
2023-05-02T10:32:12.519Z,101195.47
2023-05-02T10:34:41.454Z,101195.16
2023-05-02T10:37:08.135Z,101195.81
2023-05-02T10:39:35.077Z,101199.16
2023-05-02T10:42:04.549Z,101195.69
2023-05-02T10:44:39.666Z,101195.13
2023-05-02T10:47:26.762Z,101197.91
2023-05-02T10:49:56.626Z,101192.47
2023-05-02T10:52:32.851Z,101189.22
2023-05-02T10:55:17.898Z,101181.91
2023-05-02T10:57:59.909Z,101184.88
2023-05-02T11:00:32.408Z,101174.22
2023-05-02T11:03:00.360Z,101173.09
2023-05-02T11:05:28.314Z,101173.75
2023-05-02T11:08:21.300Z,101184.97
2023-05-02T11:10:49.746Z,101178.03
2023-05-02T11:13:16.463Z,101176.97
2023-05-02T11:15:43.055Z,101181.78
2023-05-02T11:18:14.414Z,101178.94
2023-05-02T11:20:42.256Z,101179.13
2023-05-02T11:23:15.410Z,101175.31
2023-05-02T11:25:49.304Z,101179.97
2023-05-02T11:28:34.274Z,101171.91
2023-05-02T11:31:01.000Z,101182.19
2023-05-02T11:33:30.832Z,101175.69
2023-05-02T11:35:58.628Z,101179.44
2023-05-02T11:38:26.960Z,101173.81
2023-05-02T11:40:56.284Z,101167.03
2023-05-02T11:43:25.998Z,101164.06
2023-05-02T11:45:54.508Z,101165.41
2023-05-02T11:48:23.036Z,101157.50
2023-05-02T11:51:03.685Z,101160.47
2023-05-02T11:53:31.428Z,101161.56
2023-05-02T11:56:04.156Z,101162.13
2023-05-02T11:58:33.284Z,101162.38
2023-05-02T12:01:13.293Z,101165.66
2023-05-02T12:03:40.662Z,101160.50
2023-05-02T12:06:12.988Z,101156.69
2023-05-02T12:08:41.563Z,101165.94
2023-05-02T12:11:09.184Z,101167.00
2023-05-02T12:13:45.190Z,101169.19
2023-05-02T12:16:12.125Z,101169.22
2023-05-02T12:18:39.026Z,101173.00
2023-05-02T12:21:06.201Z,101178.72
2023-05-02T12:23:35.236Z,101177.09
2023-05-02T12:26:18.707Z,101176.03
2023-05-02T12:28:50.761Z,101187.97
2023-05-02T12:31:17.589Z,101176.81
2023-05-02T12:33:52.289Z,101187.16
2023-05-02T12:36:19.642Z,101181.16
2023-05-02T12:38:55.148Z,101184.69
2023-05-02T12:41:36.935Z,101187.69
2023-05-02T12:44:04.507Z,101185.44
2023-05-02T12:46:32.219Z,101184.88
2023-05-02T12:49:09.076Z,101181.50
2023-05-02T12:51:36.380Z,101184.81
2023-05-02T12:54:03.753Z,101177.53
2023-05-02T12:56:34.596Z,101180.44
2023-05-02T12:59:03.994Z,101178.78
2023-05-02T13:01:33.128Z,101174.81
2023-05-02T13:03:59.986Z,101172.66
2023-05-02T13:06:27.482Z,101169.34
2023-05-02T13:08:54.265Z,101166.88
2023-05-02T13:11:21.008Z,101159.03
2023-05-02T13:13:47.624Z,101160.47
2023-05-02T13:16:14.325Z,101156.69
2023-05-02T13:18:41.445Z,101154.50
2023-05-02T13:21:08.214Z,101157.50
2023-05-02T13:23:34.893Z,101153.97
2023-05-02T13:26:01.599Z,101160.50
2023-05-02T13:28:30.277Z,101156.94
2023-05-02T13:30:56.953Z,101161.53
2023-05-02T13:33:23.714Z,101160.97
2023-05-02T13:35:50.350Z,101156.59
2023-05-02T13:38:16.970Z,101157.94
2023-05-02T13:40:43.742Z,101152.84
2023-05-02T13:43:10.402Z,101165.22
2023-05-02T13:45:37.173Z,101163.59
2023-05-02T13:48:04.020Z,101155.69
2023-05-02T13:50:30.802Z,101153.53
2023-05-02T13:52:57.459Z,101150.13
2023-05-02T13:55:24.074Z,101150.91
2023-05-02T13:57:50.913Z,101152.47
2023-05-02T14:00:17.759Z,101166.59
2023-05-02T14:02:47.375Z,101160.91
2023-05-02T14:05:15.142Z,101164.78
2023-05-02T14:07:41.783Z,101148.28
2023-05-02T14:10:09.073Z,101144.38
2023-05-02T14:12:36.018Z,101152.97
2023-05-02T14:15:02.901Z,101159.44
2023-05-02T14:17:32.425Z,101165.63
2023-05-02T14:19:59.217Z,101171.25
2023-05-02T14:22:26.180Z,101169.34
2023-05-02T14:24:52.898Z,101175.38
2023-05-02T14:27:19.613Z,101169.03
2023-05-02T14:29:46.623Z,101168.63
2023-05-02T14:32:13.925Z,101170.75
2023-05-02T14:34:41.675Z,101169.72
2023-05-02T14:37:11.283Z,101170.34
2023-05-02T14:39:39.005Z,101171.16
2023-05-02T14:42:06.052Z,101170.97
2023-05-02T14:44:32.755Z,101169.31
2023-05-02T14:46:59.483Z,101173.34
2023-05-02T14:49:27.454Z,101180.25
2023-05-02T14:51:55.650Z,101182.31
2023-05-02T14:54:29.432Z,101179.03
2023-05-02T14:56:56.946Z,101189.84
2023-05-02T14:59:23.760Z,101184.34
2023-05-02T15:01:51.613Z,101175.41
2023-05-02T15:04:19.581Z,101185.53
2023-05-02T15:06:48.054Z,101196.38
2023-05-02T15:09:15.987Z,101189.38
2023-05-02T15:11:44.664Z,101193.06
2023-05-02T15:14:11.315Z,101185.06
2023-05-02T15:16:39.212Z,101179.38
2023-05-02T15:19:05.977Z,101172.16
2023-05-02T15:21:32.791Z,101175.13
2023-05-02T15:23:59.855Z,101181.41
2023-05-02T15:26:27.132Z,101187.88
2023-05-02T15:28:53.726Z,101194.78
2023-05-02T15:31:20.874Z,101189.50
2023-05-02T15:33:47.756Z,101184.31
2023-05-02T15:36:14.638Z,101181.50
2023-05-02T15:38:42.823Z,101188.34
2023-05-02T15:41:12.529Z,101183.59
2023-05-02T15:43:39.336Z,101188.19
2023-05-02T15:46:06.036Z,101179.78
2023-05-02T15:48:35.788Z,101188.63
2023-05-02T15:51:02.927Z,101186.59
2023-05-02T15:53:29.937Z,101189.41
2023-05-02T15:55:57.011Z,101190.00
2023-05-02T15:58:23.699Z,101186.59
2023-05-02T16:00:52.269Z,101183.03
2023-05-02T16:03:19.075Z,101188.09
2023-05-02T16:05:46.362Z,101186.97
2023-05-02T16:08:13.105Z,101191.03
2023-05-02T16:10:40.310Z,101195.09
2023-05-02T16:13:07.059Z,101202.25
2023-05-02T16:15:33.724Z,101190.03
2023-05-02T16:18:00.532Z,101191.19
2023-05-02T16:20:28.779Z,101185.91
2023-05-02T16:22:55.665Z,101186.66
2023-05-02T16:25:22.559Z,101185.91
2023-05-02T16:27:49.374Z,101189.56
2023-05-02T16:30:16.355Z,101186.19
2023-05-02T16:32:43.103Z,101180.13
2023-05-02T16:35:12.885Z,101192.47
2023-05-02T16:37:41.066Z,101195.84
2023-05-02T16:40:09.578Z,101194.50
2023-05-02T16:42:37.090Z,101198.28
2023-05-02T16:45:04.508Z,101186.31
2023-05-02T16:47:34.216Z,101197.81
2023-05-02T16:50:01.777Z,101199.53
2023-05-02T16:52:32.326Z,101192.00
2023-05-02T16:54:59.177Z,101190.84
2023-05-02T16:57:25.889Z,101191.34
2023-05-02T16:59:52.729Z,101193.03
2023-05-02T17:02:20.818Z,101189.19
2023-05-02T17:04:49.385Z,101193.66
2023-05-02T17:07:16.499Z,101199.91
2023-05-02T17:09:44.351Z,101196.09
2023-05-02T17:12:12.433Z,101204.78
2023-05-02T17:14:42.288Z,101205.63
2023-05-02T17:17:09.934Z,101210.81
2023-05-02T17:19:37.074Z,101213.28
2023-05-02T17:22:05.030Z,101216.53
2023-05-02T17:24:32.905Z,101216.81
2023-05-02T17:27:00.808Z,101221.19
2023-05-02T17:29:27.581Z,101223.63
2023-05-02T17:31:56.817Z,101218.72
2023-05-02T17:34:28.260Z,101230.69
2023-05-02T17:36:54.928Z,101235.03
2023-05-02T17:39:22.720Z,101237.22
2023-05-02T17:41:49.481Z,101232.88
2023-05-02T17:44:16.654Z,101238.84
2023-05-02T17:46:43.550Z,101244.84
2023-05-02T17:49:10.533Z,101240.19
2023-05-02T17:51:37.250Z,101242.63
2023-05-02T17:54:04.300Z,101239.66
2023-05-02T17:56:34.438Z,101249.94
2023-05-02T17:59:01.161Z,101254.31
2023-05-02T18:01:27.956Z,101252.66
2023-05-02T18:03:54.749Z,101253.38
2023-05-02T18:06:21.748Z,101255.81
2023-05-02T18:08:51.590Z,101254.69
2023-05-02T18:11:19.838Z,101254.91
2023-05-02T18:13:46.733Z,101260.00
2023-05-02T18:16:14.807Z,101256.59
2023-05-02T18:18:41.972Z,101267.41
2023-05-02T18:21:11.884Z,101270.59
2023-05-02T18:23:40.260Z,101263.84
2023-05-02T18:26:13.064Z,101275.53
2023-05-02T18:28:42.661Z,101267.78
2023-05-02T18:31:17.726Z,101272.56
2023-05-02T18:33:46.690Z,101269.53
2023-05-02T18:36:19.130Z,101274.66
2023-05-02T18:38:46.756Z,101285.16
2023-05-02T18:41:17.482Z,101288.63
2023-05-02T18:43:47.083Z,101287.22
2023-05-02T18:46:17.076Z,101296.09
2023-05-02T18:48:47.455Z,101292.06
2023-05-02T18:51:18.404Z,101304.41
2023-05-02T18:53:45.472Z,101301.41
2023-05-02T18:56:15.525Z,101315.59
2023-05-02T18:58:43.117Z,101317.97
2023-05-02T19:01:14.916Z,101324.44
2023-05-02T19:03:45.710Z,101322.81
2023-05-02T19:06:13.385Z,101329.34
2023-05-02T19:08:40.414Z,101330.50
2023-05-02T19:11:07.316Z,101335.34
2023-05-02T19:13:33.981Z,101344.81
2023-05-02T19:16:01.069Z,101349.13
2023-05-02T19:18:27.933Z,101348.59
2023-05-02T19:20:54.711Z,101353.88
2023-05-02T19:23:21.444Z,101356.03
2023-05-02T19:25:48.213Z,101361.84
2023-05-02T19:28:16.853Z,101361.19
2023-05-02T19:30:45.187Z,101361.16
2023-05-02T19:33:12.060Z,101372.56
2023-05-02T19:35:39.340Z,101368.88
2023-05-02T19:38:06.080Z,101380.19
2023-05-02T19:40:32.821Z,101379.69
2023-05-02T19:42:59.536Z,101393.22
2023-05-02T19:45:26.406Z,101394.84
2023-05-02T19:47:53.600Z,101395.16
2023-05-02T19:50:20.391Z,101396.06
2023-05-02T19:52:47.128Z,101397.41
2023-05-02T19:55:16.026Z,101404.19
2023-05-02T19:57:44.482Z,101405.00
2023-05-02T20:00:12.797Z,101412.81
2023-05-02T20:02:40.357Z,101414.69
2023-05-02T20:05:07.754Z,101407.13
2023-05-02T20:07:34.561Z,101417.59
2023-05-02T20:10:01.663Z,101418.13
2023-05-02T20:12:30.204Z,101417.84
2023-05-02T20:14:56.935Z,101418.41
2023-05-02T20:17:23.663Z,101418.06
2023-05-02T20:19:50.355Z,101429.56
2023-05-02T20:22:18.134Z,101428.66
2023-05-02T20:24:44.830Z,101432.50
2023-05-02T20:27:11.517Z,101445.47
2023-05-02T20:29:38.231Z,101444.84
2023-05-02T20:32:05.631Z,101450.63
2023-05-02T20:34:35.596Z,101444.66
2023-05-02T20:37:05.231Z,101451.56
2023-05-02T20:39:32.232Z,101447.59
2023-05-02T20:41:58.957Z,101446.78
2023-05-02T20:44:28.408Z,101454.53
2023-05-02T20:46:55.173Z,101450.53
2023-05-02T20:49:21.941Z,101452.19
2023-05-02T20:51:50.087Z,101456.69
2023-05-02T20:54:17.646Z,101456.59
2023-05-02T20:56:44.468Z,101451.56
2023-05-02T20:59:11.548Z,101455.03
2023-05-02T21:01:38.723Z,101456.88
2023-05-02T21:04:05.844Z,101464.28
2023-05-02T21:06:32.934Z,101459.38
2023-05-02T21:09:01.241Z,101460.03
2023-05-02T21:11:28.189Z,101471.50
2023-05-02T21:13:55.249Z,101466.94
2023-05-02T21:16:22.344Z,101468.31
2023-05-02T21:18:49.205Z,101469.50
2023-05-02T21:21:16.056Z,101482.34
2023-05-02T21:23:42.940Z,101476.81
2023-05-02T21:26:09.778Z,101475.44
2023-05-02T21:28:38.389Z,101476.25
2023-05-02T21:31:07.198Z,101474.28
2023-05-02T21:33:34.159Z,101474.06
2023-05-02T21:36:01.589Z,101469.84
2023-05-02T21:38:28.985Z,101478.25
2023-05-02T21:40:55.883Z,101480.03
2023-05-02T21:43:22.670Z,101484.53
2023-05-02T21:45:50.102Z,101477.69
2023-05-02T21:48:17.428Z,101480.38
2023-05-02T21:50:44.807Z,101476.06
2023-05-02T21:53:12.628Z,101478.56
2023-05-02T21:55:42.220Z,101475.03
2023-05-02T21:58:11.045Z,101471.50
2023-05-02T22:00:39.306Z,101465.06
2023-05-02T22:03:08.702Z,101472.44
2023-05-02T22:05:35.849Z,101475.34
2023-05-02T22:08:02.825Z,101473.03
2023-05-02T22:10:29.956Z,101473.75
2023-05-02T22:12:56.685Z,101474.09
2023-05-02T22:15:23.316Z,101473.75
2023-05-02T22:17:50.554Z,101480.91
2023-05-02T22:20:17.217Z,101480.28
2023-05-02T22:22:44.606Z,101483.78
2023-05-02T22:25:11.299Z,101486.63
2023-05-02T22:27:37.965Z,101487.97
2023-05-02T22:30:05.455Z,101487.94
2023-05-02T22:32:32.361Z,101483.25
2023-05-02T22:34:59.182Z,101477.31
2023-05-02T22:37:25.839Z,101488.03
2023-05-02T22:39:53.492Z,101483.81
2023-05-02T22:42:20.704Z,101483.22
2023-05-02T22:44:54.335Z,101494.34
2023-05-02T22:47:21.743Z,101492.13
2023-05-02T22:49:49.064Z,101490.97
2023-05-02T22:52:18.256Z,101491.84
2023-05-02T22:54:44.890Z,101501.78
2023-05-02T22:57:11.531Z,101512.50
2023-05-02T22:59:38.120Z,101512.81
2023-05-02T23:02:04.860Z,101513.16
2023-05-02T23:04:32.890Z,101506.69
2023-05-02T23:06:59.891Z,101509.72
2023-05-02T23:09:26.571Z,101507.25
2023-05-02T23:11:53.211Z,101506.41
2023-05-02T23:14:21.784Z,101511.31
2023-05-02T23:16:53.622Z,101511.03
2023-05-02T23:19:20.483Z,101503.63
2023-05-02T23:21:47.260Z,101507.69
2023-05-02T23:24:13.976Z,101506.69
2023-05-02T23:26:40.879Z,101501.47
2023-05-02T23:29:08.662Z,101498.03
2023-05-02T23:31:35.490Z,101501.34
2023-05-02T23:34:02.249Z,101499.25
2023-05-02T23:36:28.897Z,101511.66
2023-05-02T23:38:55.499Z,101507.66
2023-05-02T23:41:22.320Z,101506.50
2023-05-02T23:43:49.301Z,101508.44
2023-05-02T23:46:15.991Z,101517.06
2023-05-02T23:48:42.652Z,101509.13
2023-05-02T23:51:09.343Z,101514.34
2023-05-02T23:53:36.046Z,101508.38
2023-05-02T23:56:02.687Z,101513.34
2023-05-02T23:58:29.522Z,101510.34
